Time;durP1;ratioP1;P1;durP2;ratioP2;P2;SDS_P1;SDS_P2;PMS_P1;PMS_P2;Temp;Humidity;BMP_temperature;BMP_pressure;BME280_temperature;BME280_humidity;BME280_pressure;Samples;Min_cycle;Max_cycle;Signal;HPM_P1;HPM_P2
2021/08/19 00:01:21;;;;;;;6.22;2.63;;;;;;;;;;4979778;28;20049;-57
2021/08/19 00:03:47;;;;;;;4.28;2.13;;;;;;;;;;4983715;28;20034;-57
2021/08/19 00:06:13;;;;;;;5.13;2.70;;;;;;;;;;4983431;28;20088;-57
2021/08/19 00:08:40;;;;;;;7.05;3.00;;;;;;;;;;4985422;28;20038;-57
2021/08/19 00:11:06;;;;;;;6.57;2.80;;;;;;;;;;4984484;28;20474;-57
2021/08/19 00:13:32;;;;;;;5.10;2.92;;;;;;;;;;4982179;28;20033;-57
2021/08/19 00:15:57;;;;;;;6.32;2.90;;;;;;;;;;4982870;28;20619;-57
2021/08/19 00:18:23;;;;;;;11.55;2.53;;;;;;;;;;4982876;28;20030;-57
2021/08/19 00:20:49;;;;;;;9.60;2.80;;;;;;;;;;4981115;28;20058;-58
2021/08/19 00:23:15;;;;;;;5.18;2.90;;;;;;;;;;4985022;28;20034;-57
2021/08/19 00:25:41;;;;;;;5.50;2.50;;;;;;;;;;4985993;28;20047;-57
2021/08/19 00:28:06;;;;;;;4.45;2.38;;;;;;;;;;4979911;28;20033;-57
2021/08/19 00:30:32;;;;;;;6.72;2.55;;;;;;;;;;4983578;28;20046;-57
2021/08/19 00:32:57;;;;;;;3.80;2.15;;;;;;;;;;4978710;28;20058;-57
2021/08/19 00:35:23;;;;;;;7.22;2.58;;;;;;;;;;4981886;28;20030;-57
2021/08/19 00:37:48;;;;;;;7.50;2.30;;;;;;;;;;4977912;28;20035;-57
2021/08/19 00:40:14;;;;;;;4.75;2.35;;;;;;;;;;4987973;28;20042;-57
2021/08/19 00:42:40;;;;;;;6.85;2.47;;;;;;;;;;4984641;28;20030;-57
2021/08/19 00:45:08;;;;;;;4.95;1.92;;;;;;;;;;4981215;28;20068;-57
2021/08/19 00:47:37;;;;;;;8.70;1.83;;;;;;;;;;4986031;28;20512;-57
2021/08/19 00:50:03;;;;;;;4.68;1.90;;;;;;;;;;4983741;28;20078;-57
2021/08/19 00:52:30;;;;;;;5.13;2.67;;;;;;;;;;4985359;28;20042;-57
2021/08/19 00:54:55;;;;;;;3.47;1.70;;;;;;;;;;4986111;28;20476;-57
2021/08/19 00:57:21;;;;;;;3.85;1.90;;;;;;;;;;4986526;28;20038;-57
2021/08/19 00:59:48;;;;;;;7.15;2.33;;;;;;;;;;4980116;28;20396;-57
2021/08/19 01:02:14;;;;;;;9.68;2.10;;;;;;;;;;4983400;28;20044;-57
2021/08/19 01:04:40;;;;;;;4.00;2.13;;;;;;;;;;4985064;28;20038;-56
2021/08/19 01:07:06;;;;;;;3.92;2.13;;;;;;;;;;4985719;28;20034;-57
2021/08/19 01:09:33;;;;;;;6.50;2.65;;;;;;;;;;4981940;28;20484;-57
2021/08/19 01:11:58;;;;;;;4.35;1.90;;;;;;;;;;4979427;28;20022;-57
2021/08/19 01:14:24;;;;;;;5.55;1.90;;;;;;;;;;4981794;28;20130;-57
2021/08/19 01:16:50;;;;;;;3.65;2.17;;;;;;;;;;4983634;28;20032;-57
2021/08/19 01:19:22;;;;;;;3.83;2.10;;;;;;;;;;4979150;28;20030;-58
2021/08/19 01:21:52;;;;;;;;;;;;;;;;;;4982021;28;20032;-58
2021/08/19 01:24:18;;;;;;;6.93;2.22;;;;;;;;;;4979294;28;20046;-57
2021/08/19 01:26:44;;;;;;;9.63;1.95;;;;;;;;;;4979222;28;20407;-57
2021/08/19 01:29:10;;;;;;;7.45;2.25;;;;;;;;;;4987380;28;20041;-57
2021/08/19 01:31:36;;;;;;;4.30;1.92;;;;;;;;;;4982741;28;20077;-57
2021/08/19 01:34:02;;;;;;;6.85;2.17;;;;;;;;;;4980293;28;20061;-57
2021/08/19 01:36:28;;;;;;;16.77;2.85;;;;;;;;;;4976415;28;20027;-58
2021/08/19 01:38:54;;;;;;;4.82;2.38;;;;;;;;;;4972272;28;20074;-57
2021/08/19 01:41:20;;;;;;;9.80;2.10;;;;;;;;;;4980021;28;20034;-57
2021/08/19 01:43:47;;;;;;;6.25;2.67;;;;;;;;;;4978433;28;20114;-57
2021/08/19 01:46:14;;;;;;;7.68;2.40;;;;;;;;;;4978293;28;20069;-58
2021/08/19 01:48:44;;;;;;;5.20;2.30;;;;;;;;;;4980103;28;20138;-58
2021/08/19 01:51:11;;;;;;;8.48;2.08;;;;;;;;;;4981383;28;20022;-57
2021/08/19 01:53:38;;;;;;;3.33;2.03;;;;;;;;;;4981581;28;20045;-57
2021/08/19 01:56:04;;;;;;;8.77;2.15;;;;;;;;;;4976352;28;20126;-57
2021/08/19 01:58:29;;;;;;;6.63;1.88;;;;;;;;;;4973333;28;20122;-57
2021/08/19 02:00:55;;;;;;;4.38;2.13;;;;;;;;;;4976439;28;20069;-57
2021/08/19 02:03:21;;;;;;;4.47;1.90;;;;;;;;;;4982324;28;20344;-57
2021/08/19 02:05:48;;;;;;;8.25;2.00;;;;;;;;;;4976640;28;20066;-57
2021/08/19 02:08:16;;;;;;;5.18;2.22;;;;;;;;;;4983546;28;20090;-56
2021/08/19 02:10:42;;;;;;;4.13;2.00;;;;;;;;;;4984635;28;20084;-57
2021/08/19 02:13:08;;;;;;;3.53;1.92;;;;;;;;;;4979951;28;20062;-57
2021/08/19 02:15:34;;;;;;;4.63;1.83;;;;;;;;;;4976879;28;20091;-57
2021/08/19 02:17:59;;;;;;;3.90;2.03;;;;;;;;;;4979713;28;20092;-58
2021/08/19 02:20:25;;;;;;;6.05;1.50;;;;;;;;;;4980555;28;20056;-57
2021/08/19 02:22:51;;;;;;;2.83;1.48;;;;;;;;;;4976418;28;20033;-57
2021/08/19 02:25:17;;;;;;;9.15;1.73;;;;;;;;;;4978465;28;20042;-57
2021/08/19 02:27:43;;;;;;;7.93;2.03;;;;;;;;;;4980595;28;20045;-57
2021/08/19 02:30:10;;;;;;;9.05;1.90;;;;;;;;;;4979977;28;20619;-57
2021/08/19 02:32:37;;;;;;;3.10;1.70;;;;;;;;;;4979723;28;20505;-57
2021/08/19 02:35:03;;;;;;;3.97;2.10;;;;;;;;;;4980844;28;20026;-57
2021/08/19 02:37:29;;;;;;;4.55;1.60;;;;;;;;;;4980453;28;20497;-57
2021/08/19 02:39:55;;;;;;;2.20;1.50;;;;;;;;;;4974131;28;20048;-57
2021/08/19 02:42:21;;;;;;;3.35;1.75;;;;;;;;;;4980317;28;20033;-58
2021/08/19 02:44:46;;;;;;;4.95;1.67;;;;;;;;;;4981728;28;20117;-57
2021/08/19 02:47:12;;;;;;;4.82;1.92;;;;;;;;;;4975568;28;20114;-58
2021/08/19 02:49:37;;;;;;;3.97;1.90;;;;;;;;;;4973520;28;20457;-57
2021/08/19 02:52:03;;;;;;;3.20;1.45;;;;;;;;;;4975686;28;20023;-56
2021/08/19 02:54:29;;;;;;;3.67;1.55;;;;;;;;;;4977385;28;20042;-57
2021/08/19 02:56:55;;;;;;;9.93;2.35;;;;;;;;;;4978442;28;20040;-56
2021/08/19 02:59:20;;;;;;;4.50;1.85;;;;;;;;;;4973818;28;20512;-56
2021/08/19 03:01:46;;;;;;;7.32;1.65;;;;;;;;;;4976229;28;20039;-57
2021/08/19 03:04:11;;;;;;;3.13;1.65;;;;;;;;;;4981450;28;20038;-56
2021/08/19 03:06:37;;;;;;;4.20;1.77;;;;;;;;;;4976316;28;20035;-57
2021/08/19 03:09:02;;;;;;;7.78;1.80;;;;;;;;;;4976703;28;20136;-56
2021/08/19 03:11:28;;;;;;;5.38;1.90;;;;;;;;;;4984280;28;20030;-57
2021/08/19 03:13:54;;;;;;;3.80;1.95;;;;;;;;;;4973476;28;20030;-57
2021/08/19 03:16:20;;;;;;;7.60;1.75;;;;;;;;;;4979692;28;20058;-57
2021/08/19 03:18:45;;;;;;;3.65;1.85;;;;;;;;;;4985108;28;20092;-57
2021/08/19 03:21:11;;;;;;;5.72;2.08;;;;;;;;;;4985493;28;20117;-57
2021/08/19 03:23:36;;;;;;;5.47;2.00;;;;;;;;;;4980871;28;20045;-57
2021/08/19 03:26:05;;;;;;;3.92;1.58;;;;;;;;;;4980070;28;20055;-57
2021/08/19 03:28:31;;;;;;;7.68;2.05;;;;;;;;;;4989534;28;20030;-57
2021/08/19 03:30:58;;;;;;;2.53;1.70;;;;;;;;;;4988199;28;20054;-57
2021/08/19 03:33:24;;;;;;;3.70;2.13;;;;;;;;;;4982265;28;20030;-57
2021/08/19 03:35:51;;;;;;;13.82;2.13;;;;;;;;;;4982518;28;20014;-58
2021/08/19 03:38:17;;;;;;;5.70;2.25;;;;;;;;;;4978119;28;20031;-57
2021/08/19 03:40:43;;;;;;;6.95;2.28;;;;;;;;;;4985302;28;20039;-57
2021/08/19 03:43:10;;;;;;;7.57;2.13;;;;;;;;;;4984640;28;20034;-57
2021/08/19 03:45:35;;;;;;;12.80;3.65;;;;;;;;;;4977767;28;20508;-58
2021/08/19 03:48:01;;;;;;;6.65;2.10;;;;;;;;;;4979892;28;20038;-57
2021/08/19 03:50:27;;;;;;;3.55;2.00;;;;;;;;;;4982690;28;20034;-57
2021/08/19 03:52:53;;;;;;;6.75;2.28;;;;;;;;;;4978709;28;20070;-57
2021/08/19 03:55:18;;;;;;;8.02;2.60;;;;;;;;;;4989213;28;20065;-57
2021/08/19 03:57:44;;;;;;;4.80;2.35;;;;;;;;;;4984332;28;20139;-57
2021/08/19 04:00:10;;;;;;;4.68;2.17;;;;;;;;;;4985703;28;20039;-57
2021/08/19 04:02:36;;;;;;;6.63;2.90;;;;;;;;;;4987212;28;20149;-57
2021/08/19 04:05:01;;;;;;;4.88;2.05;;;;;;;;;;4984593;28;20113;-57
2021/08/19 04:07:27;;;;;;;6.00;2.30;;;;;;;;;;4985641;28;20413;-57
2021/08/19 04:09:52;;;;;;;8.60;2.13;;;;;;;;;;4978102;28;20109;-57
2021/08/19 04:12:18;;;;;;;8.73;1.80;;;;;;;;;;4979388;28;20100;-57
2021/08/19 04:14:43;;;;;;;4.07;2.05;;;;;;;;;;4981494;28;20030;-57
2021/08/19 04:17:09;;;;;;;8.68;2.90;;;;;;;;;;4987208;28;20319;-57
2021/08/19 04:19:34;;;;;;;7.55;2.53;;;;;;;;;;4980463;28;20493;-57
2021/08/19 04:22:00;;;;;;;5.95;2.05;;;;;;;;;;4980869;28;20523;-57
2021/08/19 04:24:25;;;;;;;3.75;1.80;;;;;;;;;;4978128;28;20031;-57
2021/08/19 04:26:51;;;;;;;5.40;2.08;;;;;;;;;;4978006;28;20101;-57
2021/08/19 04:29:16;;;;;;;5.50;2.40;;;;;;;;;;4976641;28;20093;-57
2021/08/19 04:31:42;;;;;;;10.77;2.28;;;;;;;;;;4978133;28;20100;-58
2021/08/19 04:34:08;;;;;;;6.65;2.28;;;;;;;;;;4979630;28;20502;-57
2021/08/19 04:36:33;;;;;;;3.45;2.08;;;;;;;;;;4979323;28;20030;-57
2021/08/19 04:38:59;;;;;;;7.63;2.15;;;;;;;;;;4985407;28;20038;-57
2021/08/19 04:41:24;;;;;;;5.60;1.77;;;;;;;;;;4979155;28;20042;-57
2021/08/19 04:43:50;;;;;;;4.03;2.40;;;;;;;;;;4975011;28;20414;-56
2021/08/19 04:46:16;;;;;;;8.38;2.55;;;;;;;;;;4979442;28;20034;-57
2021/08/19 04:48:41;;;;;;;4.65;2.10;;;;;;;;;;4979850;28;20046;-57
2021/08/19 04:51:07;;;;;;;7.40;2.47;;;;;;;;;;4980418;28;20404;-57
2021/08/19 04:53:32;;;;;;;3.97;2.33;;;;;;;;;;4978872;28;20038;-57
2021/08/19 04:55:58;;;;;;;6.75;2.40;;;;;;;;;;4984177;28;20030;-57
2021/08/19 04:58:24;;;;;;;5.63;2.30;;;;;;;;;;4982320;28;20564;-57
2021/08/19 05:00:50;;;;;;;4.55;2.25;;;;;;;;;;4980561;28;20489;-56
2021/08/19 05:03:16;;;;;;;4.40;1.90;;;;;;;;;;4980150;28;20084;-57
2021/08/19 05:05:42;;;;;;;6.38;2.80;;;;;;;;;;4970468;28;20035;-57
2021/08/19 05:08:07;;;;;;;4.25;2.25;;;;;;;;;;4980578;28;20448;-56
2021/08/19 05:10:33;;;;;;;5.72;2.70;;;;;;;;;;4976278;28;20054;-57
2021/08/19 05:12:58;;;;;;;5.15;2.90;;;;;;;;;;4979736;28;20234;-57
2021/08/19 05:15:24;;;;;;;7.13;2.80;;;;;;;;;;4981295;28;20053;-57
2021/08/19 05:17:50;;;;;;;6.47;3.03;;;;;;;;;;4978399;28;20056;-57
2021/08/19 05:20:16;;;;;;;7.25;3.80;;;;;;;;;;4983196;28;20077;-57
2021/08/19 05:22:41;;;;;;;5.70;2.63;;;;;;;;;;4976630;28;20390;-58
2021/08/19 05:25:08;;;;;;;9.73;3.45;;;;;;;;;;4937349;28;1213217;-57
2021/08/19 05:27:33;;;;;;;5.00;3.33;;;;;;;;;;4975701;28;20201;-58
2021/08/19 05:29:59;;;;;;;5.90;3.00;;;;;;;;;;4977979;28;20663;-58
2021/08/19 05:32:24;;;;;;;10.18;3.58;;;;;;;;;;4981133;28;20035;-58
2021/08/19 05:34:50;;;;;;;6.00;3.10;;;;;;;;;;4978229;28;20091;-58
2021/08/19 05:37:15;;;;;;;7.15;3.08;;;;;;;;;;4980377;28;20046;-57
2021/08/19 05:39:41;;;;;;;5.15;2.97;;;;;;;;;;4982846;28;20537;-57
2021/08/19 05:42:06;;;;;;;6.75;2.75;;;;;;;;;;4983329;28;20026;-57
2021/08/19 05:44:32;;;;;;;3.42;2.45;;;;;;;;;;4974793;28;20124;-58
2021/08/19 05:46:58;;;;;;;5.93;2.90;;;;;;;;;;4974977;28;20038;-57
2021/08/19 05:49:23;;;;;;;6.35;2.60;;;;;;;;;;4972109;28;20069;-57
2021/08/19 05:51:49;;;;;;;6.55;2.85;;;;;;;;;;4979685;28;20485;-57
2021/08/19 05:54:15;;;;;;;5.32;3.28;;;;;;;;;;4981115;28;20042;-57
2021/08/19 05:56:41;;;;;;;3.67;2.58;;;;;;;;;;4982993;28;20452;-58
2021/08/19 05:59:06;;;;;;;7.00;2.50;;;;;;;;;;4975419;28;20035;-57
2021/08/19 06:01:32;;;;;;;3.08;2.30;;;;;;;;;;4979838;28;20031;-57
2021/08/19 06:03:57;;;;;;;5.38;3.03;;;;;;;;;;4978153;28;20054;-57
2021/08/19 06:06:23;;;;;;;6.88;2.53;;;;;;;;;;4978919;28;20112;-57
2021/08/19 06:08:48;;;;;;;7.53;3.05;;;;;;;;;;4980291;28;20034;-58
2021/08/19 06:11:14;;;;;;;6.53;2.83;;;;;;;;;;4979822;28;20034;-58
2021/08/19 06:13:39;;;;;;;4.78;2.38;;;;;;;;;;4979066;28;20434;-57
2021/08/19 06:16:05;;;;;;;4.07;2.83;;;;;;;;;;4983640;28;20023;-57
2021/08/19 06:18:31;;;;;;;8.38;3.45;;;;;;;;;;4980873;28;20104;-57
2021/08/19 06:20:56;;;;;;;8.52;2.42;;;;;;;;;;4982462;28;20568;-57
2021/08/19 06:23:22;;;;;;;5.45;2.78;;;;;;;;;;4973216;28;20034;-57
2021/08/19 06:25:47;;;;;;;7.95;3.10;;;;;;;;;;4977522;28;20046;-57
2021/08/19 06:28:13;;;;;;;5.57;2.63;;;;;;;;;;4979525;28;20042;-57
2021/08/19 06:30:38;;;;;;;6.30;2.90;;;;;;;;;;4980947;28;20051;-57
2021/08/19 06:33:04;;;;;;;6.43;2.95;;;;;;;;;;4969565;28;20022;-57
2021/08/19 06:35:31;;;;;;;5.53;2.63;;;;;;;;;;4982005;28;20080;-57
2021/08/19 06:37:56;;;;;;;3.35;2.22;;;;;;;;;;4975664;28;20656;-57
2021/08/19 06:40:22;;;;;;;3.67;2.60;;;;;;;;;;4969918;28;20304;-57
2021/08/19 06:42:48;;;;;;;4.57;2.38;;;;;;;;;;4979516;28;20077;-57
2021/08/19 06:45:14;;;;;;;6.05;2.83;;;;;;;;;;4978911;28;20023;-57
2021/08/19 06:47:40;;;;;;;4.57;2.67;;;;;;;;;;4979837;28;20507;-57
2021/08/19 06:50:06;;;;;;;5.15;3.25;;;;;;;;;;4976571;28;20119;-57
2021/08/19 06:52:32;;;;;;;4.85;3.13;;;;;;;;;;4980644;28;20552;-57
2021/08/19 06:54:59;;;;;;;5.15;2.70;;;;;;;;;;4977590;28;20129;-57
2021/08/19 06:57:24;;;;;;;4.15;2.53;;;;;;;;;;4979093;28;20034;-57
2021/08/19 06:59:50;;;;;;;5.32;2.70;;;;;;;;;;4978330;28;20407;-57
2021/08/19 07:02:15;;;;;;;4.38;2.70;;;;;;;;;;4973997;28;20030;-57
2021/08/19 07:04:41;;;;;;;7.00;2.50;;;;;;;;;;4980815;28;20041;-57
2021/08/19 07:07:07;;;;;;;9.32;2.92;;;;;;;;;;4977505;28;20038;-57
2021/08/19 07:09:32;;;;;;;7.80;2.70;;;;;;;;;;4976106;28;20038;-57
2021/08/19 07:11:58;;;;;;;4.90;3.08;;;;;;;;;;4979031;28;20060;-57
2021/08/19 07:14:24;;;;;;;10.85;2.75;;;;;;;;;;4976700;28;20061;-57
2021/08/19 07:16:49;;;;;;;8.70;3.00;;;;;;;;;;4980258;28;20139;-57
2021/08/19 07:19:15;;;;;;;4.75;3.00;;;;;;;;;;4977157;28;20169;-57
2021/08/19 07:21:40;;;;;;;9.50;3.25;;;;;;;;;;4975939;28;20027;-57
2021/08/19 07:24:06;;;;;;;5.30;2.60;;;;;;;;;;4985529;28;20119;-57
2021/08/19 07:26:32;;;;;;;10.77;3.05;;;;;;;;;;4980728;28;20050;-57
2021/08/19 07:28:57;;;;;;;6.05;2.83;;;;;;;;;;4977048;28;20429;-57
2021/08/19 07:31:24;;;;;;;7.40;2.95;;;;;;;;;;4973806;28;20030;-57
2021/08/19 07:33:51;;;;;;;4.43;2.60;;;;;;;;;;4982776;28;20034;-57
2021/08/19 07:36:16;;;;;;;6.28;2.83;;;;;;;;;;4983251;28;20022;-57
2021/08/19 07:38:42;;;;;;;4.45;2.70;;;;;;;;;;4976266;28;20068;-58
2021/08/19 07:41:08;;;;;;;9.40;2.85;;;;;;;;;;4978514;28;20113;-57
2021/08/19 07:43:34;;;;;;;7.40;2.70;;;;;;;;;;4980811;28;20486;-59
2021/08/19 07:46:00;;;;;;;9.88;2.92;;;;;;;;;;4976800;28;20053;-58
2021/08/19 07:48:25;;;;;;;5.85;2.97;;;;;;;;;;4976997;28;20030;-58
2021/08/19 07:50:51;;;;;;;7.07;3.22;;;;;;;;;;4980271;28;20039;-58
2021/08/19 07:53:16;;;;;;;11.98;3.08;;;;;;;;;;4978656;28;20050;-58
2021/08/19 07:55:42;;;;;;;3.20;2.00;;;;;;;;;;4978998;28;20034;-58
2021/08/19 07:58:08;;;;;;;7.57;2.58;;;;;;;;;;4980210;28;20038;-58
2021/08/19 08:00:37;;;;;;;3.70;1.98;;;;;;;;;;4977094;28;20046;-58
2021/08/19 08:03:03;;;;;;;3.67;2.10;;;;;;;;;;4983186;28;20042;-57
2021/08/19 08:05:31;;;;;;;2.90;1.77;;;;;;;;;;4980906;28;20031;-58
2021/08/19 08:08:10;;;;;;;4.60;2.13;;;;;;;;;;4973951;28;20839;-58
2021/08/19 08:10:38;;;;;;;6.43;2.03;;;;;;;;;;4979711;28;20038;-58
2021/08/19 08:13:08;;;;;;;9.75;2.70;;;;;;;;;;4982289;28;20131;-57
2021/08/19 08:15:35;;;;;;;5.53;2.28;;;;;;;;;;4983576;28;20026;-57
2021/08/19 08:18:01;;;;;;;5.25;2.78;;;;;;;;;;4985533;28;20670;-56
2021/08/19 08:20:27;;;;;;;4.68;2.10;;;;;;;;;;4978034;28;20034;-57
2021/08/19 08:22:53;;;;;;;3.05;2.08;;;;;;;;;;4980621;28;20034;-57
2021/08/19 08:25:20;;;;;;;5.43;2.38;;;;;;;;;;4983380;28;20057;-56
2021/08/19 08:28:05;;;;;;;4.22;2.17;;;;;;;;;;4983169;28;20034;-57
2021/08/19 08:30:32;;;;;;;9.90;2.97;;;;;;;;;;4982728;28;20058;-57
2021/08/19 08:32:58;;;;;;;5.57;3.17;;;;;;;;;;4982476;28;20034;-57
2021/08/19 08:35:25;;;;;;;6.68;4.03;;;;;;;;;;4980679;28;20054;-57
2021/08/19 08:37:50;;;;;;;9.40;3.45;;;;;;;;;;4983100;28;20065;-57
2021/08/19 08:40:18;;;;;;;13.10;4.15;;;;;;;;;;4962935;28;20022;-57
2021/08/19 08:42:44;;;;;;;10.02;3.10;;;;;;;;;;4976281;28;20469;-56
2021/08/19 08:45:11;;;;;;;7.07;4.05;;;;;;;;;;4974458;28;20117;-56
2021/08/19 08:47:39;;;;;;;11.57;3.63;;;;;;;;;;4981143;28;20056;-56
2021/08/19 08:50:07;;;;;;;8.18;3.40;;;;;;;;;;4979610;28;20109;-57
2021/08/19 08:52:34;;;;;;;19.55;4.60;;;;;;;;;;4992606;28;20031;-57
2021/08/19 08:55:01;;;;;;;17.13;5.20;;;;;;;;;;4976124;28;20026;-56
2021/08/19 08:57:27;;;;;;;14.60;5.88;;;;;;;;;;4979864;28;20039;-56
2021/08/19 08:59:54;;;;;;;16.02;5.60;;;;;;;;;;4977930;28;20035;-56
2021/08/19 09:02:19;;;;;;;15.18;5.32;;;;;;;;;;4974587;28;20509;-56
2021/08/19 09:04:46;;;;;;;10.05;5.13;;;;;;;;;;4976381;28;20041;-57
2021/08/19 09:07:11;;;;;;;16.90;5.47;;;;;;;;;;4975137;28;20073;-56
2021/08/19 09:09:37;;;;;;;16.45;4.70;;;;;;;;;;4977548;28;20423;-56
2021/08/19 09:12:07;;;;;;;10.85;5.63;;;;;;;;;;4983634;28;20026;-56
2021/08/19 09:14:40;;;;;;;13.15;6.32;;;;;;;;;;4973465;28;20413;-57
2021/08/19 09:17:05;;;;;;;11.73;5.97;;;;;;;;;;4981920;28;20108;-57
2021/08/19 09:19:34;;;;;;;16.10;6.28;;;;;;;;;;4972309;28;20090;-56
2021/08/19 09:22:02;;;;;;;13.77;7.03;;;;;;;;;;4981344;28;20414;-56
2021/08/19 09:24:30;;;;;;;12.95;6.63;;;;;;;;;;4972687;28;20502;-56
2021/08/19 09:27:16;;;;;;;11.27;6.65;;;;;;;;;;4977538;28;20038;-57
2021/08/19 09:29:46;;;;;;;21.23;7.05;;;;;;;;;;4977291;28;20116;-57
2021/08/19 09:32:12;;;;;;;13.23;7.22;;;;;;;;;;4977110;28;20117;-57
2021/08/19 09:34:40;;;;;;;19.67;7.15;;;;;;;;;;4983209;28;20437;-56
2021/08/19 09:37:15;;;;;;;16.13;7.07;;;;;;;;;;4982054;28;20488;-56
2021/08/19 09:39:46;;;;;;;13.05;6.88;;;;;;;;;;4975555;28;20915;-56
2021/08/19 09:42:14;;;;;;;12.60;8.05;;;;;;;;;;4972784;28;20037;-56
2021/08/19 09:44:42;;;;;;;15.50;8.57;;;;;;;;;;4976567;28;20031;-56
2021/08/19 09:47:29;;;;;;;13.98;7.88;;;;;;;;;;4986402;28;20026;-56
2021/08/19 09:50:12;;;;;;;24.02;9.70;;;;;;;;;;4977900;28;20062;-55
2021/08/19 09:52:37;;;;;;;18.00;8.70;;;;;;;;;;4972478;28;20278;-56
2021/08/19 09:55:26;;;;;;;17.02;8.23;;;;;;;;;;4983250;28;20280;-56
2021/08/19 09:57:53;;;;;;;20.17;8.77;;;;;;;;;;4976577;28;20118;-56
2021/08/19 10:00:41;;;;;;;12.25;7.68;;;;;;;;;;4980949;28;20030;-56
2021/08/19 10:03:11;;;;;;;11.35;7.90;;;;;;;;;;4978003;28;20133;-58
2021/08/19 10:05:40;;;;;;;15.18;8.98;;;;;;;;;;4978130;28;20070;-56
2021/08/19 10:08:08;;;;;;;22.27;9.77;;;;;;;;;;4976466;28;20047;-56
2021/08/19 10:10:34;;;;;;;18.55;9.73;;;;;;;;;;4972836;28;20213;-56
2021/08/19 10:13:02;;;;;;;16.88;10.05;;;;;;;;;;4970903;28;20057;-56
2021/08/19 10:15:28;;;;;;;19.40;9.25;;;;;;;;;;4970269;28;20079;-56
2021/08/19 10:17:58;;;;;;;16.25;9.20;;;;;;;;;;4981575;28;20133;-56
2021/08/19 10:20:39;;;;;;;11.45;7.97;;;;;;;;;;4970162;28;20042;-56
2021/08/19 10:23:05;;;;;;;11.63;8.02;;;;;;;;;;4975687;28;20034;-56
2021/08/19 10:25:30;;;;;;;13.02;8.18;;;;;;;;;;4970265;28;21734;-56
2021/08/19 10:28:16;;;;;;;10.60;6.75;;;;;;;;;;4968984;28;20030;-54
2021/08/19 10:30:49;;;;;;;10.90;7.50;;;;;;;;;;4979642;28;20060;-56
2021/08/19 10:33:36;;;;;;;16.45;7.28;;;;;;;;;;4974265;28;20277;-56
2021/08/19 10:36:10;;;;;;;9.13;6.95;;;;;;;;;;4982834;28;20544;-56
2021/08/19 10:38:36;;;;;;;9.15;6.72;;;;;;;;;;4978569;28;20049;-54
2021/08/19 10:41:02;;;;;;;11.38;6.65;;;;;;;;;;4978424;28;20061;-56
2021/08/19 10:43:37;;;;;;;10.20;6.70;;;;;;;;;;4979759;28;20026;-56
2021/08/19 10:46:08;;;;;;;11.80;6.78;;;;;;;;;;4971307;28;20077;-56
2021/08/19 10:48:49;;;;;;;13.55;6.57;;;;;;;;;;4978812;28;20044;-54
2021/08/19 10:51:16;;;;;;;12.15;7.20;;;;;;;;;;4979041;28;20502;-56
2021/08/19 10:53:41;;;;;;;9.60;7.50;;;;;;;;;;4980031;28;20448;-55
2021/08/19 10:56:07;;;;;;;11.45;8.73;;;;;;;;;;4978907;28;20026;-56
2021/08/19 10:58:35;;;;;;;11.75;8.25;;;;;;;;;;4978204;28;20046;-56
2021/08/19 11:01:13;;;;;;;13.25;9.75;;;;;;;;;;4975074;28;20460;-57
2021/08/19 11:03:38;;;;;;;12.00;10.10;;;;;;;;;;4981542;28;20113;-58
2021/08/19 11:06:13;;;;;;;14.05;9.65;;;;;;;;;;4976316;28;20102;-58
2021/08/19 11:08:46;;;;;;;31.77;10.55;;;;;;;;;;4979360;28;20038;-59
2021/08/19 11:11:14;;;;;;;16.67;12.13;;;;;;;;;;4976296;28;20029;-57
2021/08/19 11:13:40;;;;;;;21.95;13.13;;;;;;;;;;4980174;28;20037;-57
2021/08/19 11:16:08;;;;;;;19.20;12.85;;;;;;;;;;4976736;28;20101;-57
2021/08/19 11:18:35;;;;;;;22.23;14.10;;;;;;;;;;4979562;28;20343;-57
2021/08/19 11:21:03;;;;;;;29.75;11.38;;;;;;;;;;4972723;28;20030;-57
2021/08/19 11:23:33;;;;;;;21.08;13.82;;;;;;;;;;4979287;28;20034;-57
2021/08/19 11:26:07;;;;;;;25.75;13.38;;;;;;;;;;4972848;28;20039;-57
2021/08/19 11:28:36;;;;;;;19.10;13.35;;;;;;;;;;4974814;28;20027;-57
2021/08/19 11:31:11;;;;;;;18.58;11.18;;;;;;;;;;4974132;28;20544;-57
2021/08/19 11:33:38;;;;;;;18.15;11.80;;;;;;;;;;4984205;28;20050;-57
2021/08/19 11:36:04;;;;;;;24.92;12.85;;;;;;;;;;4973709;28;20038;-57
2021/08/19 11:38:29;;;;;;;23.55;12.60;;;;;;;;;;4972419;28;20030;-57
2021/08/19 11:40:58;;;;;;;17.42;10.80;;;;;;;;;;4974973;28;20540;-57
2021/08/19 11:43:25;;;;;;;18.10;10.98;;;;;;;;;;4984200;28;20022;-57
2021/08/19 11:45:53;;;;;;;16.70;11.30;;;;;;;;;;4979913;28;20163;-57
2021/08/19 11:48:21;;;;;;;15.23;11.45;;;;;;;;;;4976844;28;20566;-57
2021/08/19 11:50:57;;;;;;;18.85;10.30;;;;;;;;;;4987289;28;20034;-58
2021/08/19 11:53:23;;;;;;;13.63;9.23;;;;;;;;;;4981605;28;20061;-57
2021/08/19 11:55:49;;;;;;;18.67;9.60;;;;;;;;;;4980860;28;20413;-57
2021/08/19 11:58:16;;;;;;;15.82;8.57;;;;;;;;;;4978007;28;20026;-57
2021/08/19 12:01:14;;;;;;;11.02;8.25;;;;;;;;;;4982534;28;20088;-55
2021/08/19 12:03:42;;;;;;;9.15;6.40;;;;;;;;;;4974077;28;20129;-57
2021/08/19 12:06:09;;;;;;;9.00;7.30;;;;;;;;;;4977546;28;20262;-58
2021/08/19 12:08:38;;;;;;;11.50;7.57;;;;;;;;;;4977923;28;20497;-57
2021/08/19 12:11:07;;;;;;;15.27;7.25;;;;;;;;;;4986140;28;20030;-57
2021/08/19 12:13:36;;;;;;;14.05;7.65;;;;;;;;;;4983522;28;20046;-57
2021/08/19 12:16:02;;;;;;;11.43;6.40;;;;;;;;;;4981923;28;20553;-57
2021/08/19 12:18:28;;;;;;;10.43;6.68;;;;;;;;;;4980266;28;20058;-57
2021/08/19 12:21:13;;;;;;;7.30;5.65;;;;;;;;;;4980770;28;20058;-57
2021/08/19 12:23:39;;;;;;;6.68;5.55;;;;;;;;;;4977557;28;20040;-57
2021/08/19 12:26:09;;;;;;;8.43;5.68;;;;;;;;;;4974753;28;20085;-57
2021/08/19 12:28:35;;;;;;;7.28;5.40;;;;;;;;;;4976882;28;20097;-58
2021/08/19 12:31:08;;;;;;;7.80;4.90;;;;;;;;;;4980330;28;20496;-57
2021/08/19 12:33:39;;;;;;;6.40;4.90;;;;;;;;;;4979335;28;20034;-58
2021/08/19 12:36:17;;;;;;;8.90;4.40;;;;;;;;;;4978918;28;20061;-57
2021/08/19 12:38:45;;;;;;;12.20;6.22;;;;;;;;;;4975704;28;20045;-57
2021/08/19 12:41:16;;;;;;;10.65;6.53;;;;;;;;;;4991154;28;20034;-57
2021/08/19 12:43:43;;;;;;;10.43;6.72;;;;;;;;;;4983725;28;20386;-56
2021/08/19 12:46:10;;;;;;;9.27;6.28;;;;;;;;;;4980664;28;20113;-56
2021/08/19 12:48:37;;;;;;;9.18;6.15;;;;;;;;;;4979774;28;20026;-56
2021/08/19 12:51:24;;;;;;;8.40;5.60;;;;;;;;;;4985638;28;20030;-56
2021/08/19 12:54:08;;;;;;;11.98;5.25;;;;;;;;;;4977612;28;20030;-56
2021/08/19 12:56:39;;;;;;;10.38;5.18;;;;;;;;;;4980552;28;20022;-56
2021/08/19 12:59:05;;;;;;;10.23;5.57;;;;;;;;;;4981012;28;20038;-57
2021/08/19 13:01:30;;;;;;;13.38;5.60;;;;;;;;;;4979573;28;20173;-57
2021/08/19 13:03:56;;;;;;;8.75;6.07;;;;;;;;;;4981432;28;20532;-57
2021/08/19 13:06:22;;;;;;;8.93;6.05;;;;;;;;;;4985159;28;20026;-57
2021/08/19 13:08:47;;;;;;;13.93;6.40;;;;;;;;;;4983805;28;20458;-57
2021/08/19 13:11:16;;;;;;;7.70;5.95;;;;;;;;;;4976746;28;20478;-57
2021/08/19 13:13:42;;;;;;;10.40;5.90;;;;;;;;;;4978500;28;20493;-57
2021/08/19 13:16:08;;;;;;;10.27;5.97;;;;;;;;;;4978687;28;20081;-57
2021/08/19 13:18:33;;;;;;;10.60;5.72;;;;;;;;;;4987216;28;20088;-57
2021/08/19 13:21:00;;;;;;;8.43;5.53;;;;;;;;;;4982621;28;20070;-57
2021/08/19 13:23:28;;;;;;;8.65;5.03;;;;;;;;;;4984357;28;20037;-57
2021/08/19 13:25:54;;;;;;;9.02;5.10;;;;;;;;;;4984425;28;20038;-57
2021/08/19 13:28:20;;;;;;;8.32;5.00;;;;;;;;;;4980893;28;20441;-57
2021/08/19 13:30:45;;;;;;;10.45;5.70;;;;;;;;;;4979037;28;20042;-57
2021/08/19 13:33:11;;;;;;;12.45;6.28;;;;;;;;;;4979756;28;20665;-57
2021/08/19 13:35:36;;;;;;;12.75;6.95;;;;;;;;;;4962275;28;20030;-58
2021/08/19 13:38:02;;;;;;;10.35;6.20;;;;;;;;;;4979043;28;20034;-58
2021/08/19 13:40:28;;;;;;;8.57;6.20;;;;;;;;;;4983147;28;20026;-57
2021/08/19 13:42:53;;;;;;;10.90;6.68;;;;;;;;;;4975804;28;20038;-57
2021/08/19 13:45:19;;;;;;;12.45;6.07;;;;;;;;;;4980894;28;20476;-57
2021/08/19 13:47:44;;;;;;;9.20;6.05;;;;;;;;;;4984948;28;20413;-57
2021/08/19 13:50:10;;;;;;;7.28;6.05;;;;;;;;;;4984683;28;20035;-57
2021/08/19 13:52:36;;;;;;;12.13;7.18;;;;;;;;;;4980205;28;20033;-56
2021/08/19 13:55:03;;;;;;;10.38;6.68;;;;;;;;;;4981118;28;20493;-57
2021/08/19 13:57:30;;;;;;;9.88;6.38;;;;;;;;;;4981937;28;20050;-57
2021/08/19 13:59:55;;;;;;;10.52;6.57;;;;;;;;;;4983217;28;20081;-57
2021/08/19 14:02:21;;;;;;;13.25;8.85;;;;;;;;;;4982424;28;20027;-57
2021/08/19 14:04:47;;;;;;;14.60;8.32;;;;;;;;;;4977383;28;20039;-57
2021/08/19 14:07:12;;;;;;;10.30;8.30;;;;;;;;;;4983599;28;20113;-56
2021/08/19 14:09:38;;;;;;;10.30;7.88;;;;;;;;;;4979853;28;20429;-57
2021/08/19 14:12:03;;;;;;;12.05;8.50;;;;;;;;;;4978167;28;20065;-57
2021/08/19 14:14:29;;;;;;;15.45;8.13;;;;;;;;;;4982242;28;20030;-57
2021/08/19 14:16:55;;;;;;;12.90;8.50;;;;;;;;;;4982157;28;20038;-57
2021/08/19 14:19:20;;;;;;;11.73;8.18;;;;;;;;;;4980766;28;20081;-57
2021/08/19 14:21:47;;;;;;;11.02;7.00;;;;;;;;;;4978746;28;20362;-57
2021/08/19 14:24:13;;;;;;;13.00;6.50;;;;;;;;;;4981288;28;20026;-57
2021/08/19 14:26:40;;;;;;;10.48;6.47;;;;;;;;;;4980150;28;20445;-57
2021/08/19 14:29:05;;;;;;;14.18;6.93;;;;;;;;;;4977310;28;20089;-57
2021/08/19 14:31:31;;;;;;;9.98;6.72;;;;;;;;;;4979535;28;20035;-57
2021/08/19 14:33:56;;;;;;;13.88;7.30;;;;;;;;;;4977744;28;20433;-56
2021/08/19 14:36:22;;;;;;;10.07;7.18;;;;;;;;;;4980684;28;20054;-56
2021/08/19 14:38:48;;;;;;;10.52;7.00;;;;;;;;;;4978086;28;20173;-57